Main page
METAR-TAF:

METAR-TAF

Airports :

Béziers Cap d'Agde Airport

Béziers, France

latitude: 43-19N, longitude: 003-21E, elevation: 17 m

Current weather observation

The report was made 15 minutes ago, at 21:00 UTC
Wind 3 kt from variable directions
Temperature 3°C
Humidity 81%
Pressure 1022 hPa
Visibility 10 km or more

METAR: LFMU 102100Z AUTO VRB03KT 9999 // NCD 03/M00 Q1022

Time: 22:15 (21:15 UTC)

Forecast

The report was made 3 hours and 15 minutes ago, at 18:00 UTC
Forecast valid from 10 at 18 UTC to 11 at 15 UTC
Wind 5 kt from the West/Northwest
Visibility 10 km or more
no clouds below 1500 m and no cumulonimbus
Temporary
from 11 at 12 UTC to 11 at 15 UTC
Scattered clouds at a height of 3000 ft, Cumulonimbus.
Broken clouds at a height of 6000 ft
rain showers

TAF: LFMU 101800Z 1018/1115 29005KT CAVOK TEMPO 1112/1115 SHRA SCT030CB BKN060

Weather observations and forecasts of more than 4000 airports (METAR and TAF reports).

The available stations are represented by yellow and red dots on the map.

Hover mouse over dot to see the name of the station.

Then click to see weather observations and forecasts.

To change the map : click on the green buttons with a black cross to zoom in, on the green button with a dash to zoom out, or on the green arrows for adjacent maps.


METAR-TAF: